sensor_id;sensor_type;location;lat;lon;timestamp;temperature;humidity
39347;DHT22;26262;49.836;6.632;2024-01-06T00:00:44;5.20;99.90
39347;DHT22;26262;49.836;6.632;2024-01-06T00:03:11;5.20;99.90
39347;DHT22;26262;49.836;6.632;2024-01-06T00:05:36;5.20;99.90
39347;DHT22;26262;49.836;6.632;2024-01-06T00:08:01;5.20;99.90
39347;DHT22;26262;49.836;6.632;2024-01-06T00:10:27;5.30;99.90
39347;DHT22;26262;49.836;6.632;2024-01-06T00:12:52;5.30;99.90
39347;DHT22;26262;49.836;6.632;2024-01-06T00:15:18;5.20;99.90
39347;DHT22;26262;49.836;6.632;2024-01-06T00:17:43;5.20;99.90
39347;DHT22;26262;49.836;6.632;2024-01-06T00:20:09;5.20;99.90
39347;DHT22;26262;49.836;6.632;2024-01-06T00:22:34;5.10;99.90
39347;DHT22;26262;49.836;6.632;2024-01-06T00:25:00;5.30;99.90
39347;DHT22;26262;49.836;6.632;2024-01-06T00:27:26;5.20;99.90
39347;DHT22;26262;49.836;6.632;2024-01-06T00:29:51;5.40;99.90
39347;DHT22;26262;49.836;6.632;2024-01-06T00:32:17;5.40;99.90
39347;DHT22;26262;49.836;6.632;2024-01-06T00:34:42;5.40;99.90
39347;DHT22;26262;49.836;6.632;2024-01-06T00:37:07;5.50;99.90
39347;DHT22;26262;49.836;6.632;2024-01-06T00:39:33;5.40;99.90
39347;DHT22;26262;49.836;6.632;2024-01-06T00:41:58;5.50;99.90
39347;DHT22;26262;49.836;6.632;2024-01-06T00:44:24;5.50;99.90
39347;DHT22;26262;49.836;6.632;2024-01-06T00:46:49;5.40;99.90
39347;DHT22;26262;49.836;6.632;2024-01-06T00:49:15;5.50;99.90
39347;DHT22;26262;49.836;6.632;2024-01-06T00:51:40;5.40;99.90
39347;DHT22;26262;49.836;6.632;2024-01-06T00:54:05;5.30;99.90
39347;DHT22;26262;49.836;6.632;2024-01-06T00:56:31;5.40;99.90
39347;DHT22;26262;49.836;6.632;2024-01-06T00:58:56;5.40;99.90
39347;DHT22;26262;49.836;6.632;2024-01-06T01:01:22;5.50;99.90
39347;DHT22;26262;49.836;6.632;2024-01-06T01:03:47;5.50;99.90
39347;DHT22;26262;49.836;6.632;2024-01-06T01:06:13;5.60;99.90
39347;DHT22;26262;49.836;6.632;2024-01-06T01:08:38;5.70;99.90
39347;DHT22;26262;49.836;6.632;2024-01-06T01:11:03;5.70;99.90
39347;DHT22;26262;49.836;6.632;2024-01-06T01:13:29;5.60;99.90
39347;DHT22;26262;49.836;6.632;2024-01-06T01:15:55;5.60;99.90
39347;DHT22;26262;49.836;6.632;2024-01-06T01:18:20;5.60;99.90
39347;DHT22;26262;49.836;6.632;2024-01-06T01:20:46;5.70;99.90
39347;DHT22;26262;49.836;6.632;2024-01-06T01:23:11;5.80;99.90
39347;DHT22;26262;49.836;6.632;2024-01-06T01:25:37;5.90;99.90
39347;DHT22;26262;49.836;6.632;2024-01-06T01:28:02;5.70;99.90
39347;DHT22;26262;49.836;6.632;2024-01-06T01:30:28;5.70;99.90
39347;DHT22;26262;49.836;6.632;2024-01-06T01:32:53;5.80;99.90
39347;DHT22;26262;49.836;6.632;2024-01-06T01:35:18;5.60;99.90
39347;DHT22;26262;49.836;6.632;2024-01-06T01:37:44;5.60;99.90
39347;DHT22;26262;49.836;6.632;2024-01-06T01:40:09;5.80;99.90
39347;DHT22;26262;49.836;6.632;2024-01-06T01:42:35;5.60;99.90
39347;DHT22;26262;49.836;6.632;2024-01-06T01:45:00;5.70;99.90
39347;DHT22;26262;49.836;6.632;2024-01-06T01:47:26;5.50;99.90
39347;DHT22;26262;49.836;6.632;2024-01-06T01:49:52;5.60;99.90
39347;DHT22;26262;49.836;6.632;2024-01-06T01:52:17;5.70;99.90
39347;DHT22;26262;49.836;6.632;2024-01-06T01:54:43;5.80;99.90
39347;DHT22;26262;49.836;6.632;2024-01-06T01:57:10;5.80;99.90
39347;DHT22;26262;49.836;6.632;2024-01-06T01:59:36;5.90;99.90
39347;DHT22;26262;49.836;6.632;2024-01-06T02:02:02;5.70;99.90
39347;DHT22;26262;49.836;6.632;2024-01-06T02:04:27;5.80;99.90
39347;DHT22;26262;49.836;6.632;2024-01-06T02:06:52;5.80;99.90
39347;DHT22;26262;49.836;6.632;2024-01-06T02:09:18;5.80;99.90
39347;DHT22;26262;49.836;6.632;2024-01-06T02:11:43;5.80;99.90
39347;DHT22;26262;49.836;6.632;2024-01-06T02:14:09;5.60;99.90
39347;DHT22;26262;49.836;6.632;2024-01-06T02:16:34;5.60;99.90
39347;DHT22;26262;49.836;6.632;2024-01-06T02:19:00;5.70;99.90
39347;DHT22;26262;49.836;6.632;2024-01-06T02:21:25;5.80;99.90
39347;DHT22;26262;49.836;6.632;2024-01-06T02:23:52;5.90;99.90
39347;DHT22;26262;49.836;6.632;2024-01-06T02:26:18;5.90;99.90
39347;DHT22;26262;49.836;6.632;2024-01-06T02:28:44;5.90;99.90
39347;DHT22;26262;49.836;6.632;2024-01-06T02:31:13;6.00;99.90
39347;DHT22;26262;49.836;6.632;2024-01-06T02:33:38;5.80;99.90
39347;DHT22;26262;49.836;6.632;2024-01-06T02:36:04;5.70;99.90
39347;DHT22;26262;49.836;6.632;2024-01-06T02:38:29;5.50;99.90
39347;DHT22;26262;49.836;6.632;2024-01-06T02:40:55;5.30;99.90
39347;DHT22;26262;49.836;6.632;2024-01-06T02:43:20;5.20;99.90
39347;DHT22;26262;49.836;6.632;2024-01-06T02:45:47;5.10;99.90
39347;DHT22;26262;49.836;6.632;2024-01-06T02:48:12;5.20;99.90
39347;DHT22;26262;49.836;6.632;2024-01-06T02:50:38;5.30;99.90
39347;DHT22;26262;49.836;6.632;2024-01-06T02:53:03;5.40;99.90
39347;DHT22;26262;49.836;6.632;2024-01-06T02:55:29;5.40;99.90
39347;DHT22;26262;49.836;6.632;2024-01-06T02:57:54;5.50;99.90
39347;DHT22;26262;49.836;6.632;2024-01-06T03:00:20;5.70;99.90
39347;DHT22;26262;49.836;6.632;2024-01-06T03:02:45;5.60;99.90
39347;DHT22;26262;49.836;6.632;2024-01-06T03:05:11;5.50;99.90
39347;DHT22;26262;49.836;6.632;2024-01-06T03:07:36;5.60;99.90
39347;DHT22;26262;49.836;6.632;2024-01-06T03:10:02;5.50;99.90
39347;DHT22;26262;49.836;6.632;2024-01-06T03:12:27;5.70;99.90
39347;DHT22;26262;49.836;6.632;2024-01-06T03:14:53;5.60;99.90
39347;DHT22;26262;49.836;6.632;2024-01-06T03:17:18;5.60;99.90
39347;DHT22;26262;49.836;6.632;2024-01-06T03:19:44;5.60;99.90
39347;DHT22;26262;49.836;6.632;2024-01-06T03:22:09;5.60;99.90
39347;DHT22;26262;49.836;6.632;2024-01-06T03:24:35;5.80;99.90
39347;DHT22;26262;49.836;6.632;2024-01-06T03:27:00;5.60;99.90
39347;DHT22;26262;49.836;6.632;2024-01-06T03:29:26;5.70;99.90
39347;DHT22;26262;49.836;6.632;2024-01-06T03:31:51;5.60;99.90
39347;DHT22;26262;49.836;6.632;2024-01-06T03:34:17;5.70;99.90
39347;DHT22;26262;49.836;6.632;2024-01-06T03:36:42;5.80;99.90
39347;DHT22;26262;49.836;6.632;2024-01-06T03:39:07;5.70;99.90
39347;DHT22;26262;49.836;6.632;2024-01-06T03:41:33;5.60;99.90
39347;DHT22;26262;49.836;6.632;2024-01-06T03:43:58;5.70;99.90
39347;DHT22;26262;49.836;6.632;2024-01-06T03:46:24;5.70;99.90
39347;DHT22;26262;49.836;6.632;2024-01-06T03:48:50;5.70;99.90
39347;DHT22;26262;49.836;6.632;2024-01-06T03:51:15;5.60;99.90
39347;DHT22;26262;49.836;6.632;2024-01-06T03:53:40;5.60;99.90
39347;DHT22;26262;49.836;6.632;2024-01-06T03:56:06;5.80;99.90
39347;DHT22;26262;49.836;6.632;2024-01-06T03:58:31;5.80;99.90
39347;DHT22;26262;49.836;6.632;2024-01-06T04:00:57;6.00;99.90
39347;DHT22;26262;49.836;6.632;2024-01-06T04:03:22;5.80;99.90
39347;DHT22;26262;49.836;6.632;2024-01-06T04:05:48;5.90;99.90
39347;DHT22;26262;49.836;6.632;2024-01-06T04:08:13;5.80;99.90
39347;DHT22;26262;49.836;6.632;2024-01-06T04:10:38;5.80;99.90
39347;DHT22;26262;49.836;6.632;2024-01-06T04:13:06;5.70;99.90
39347;DHT22;26262;49.836;6.632;2024-01-06T04:15:32;5.70;99.90
39347;DHT22;26262;49.836;6.632;2024-01-06T04:18:00;5.70;99.90
39347;DHT22;26262;49.836;6.632;2024-01-06T04:20:26;5.80;99.90
39347;DHT22;26262;49.836;6.632;2024-01-06T04:22:52;5.80;99.90
39347;DHT22;26262;49.836;6.632;2024-01-06T04:25:17;6.00;99.90
39347;DHT22;26262;49.836;6.632;2024-01-06T04:27:42;5.70;99.90
39347;DHT22;26262;49.836;6.632;2024-01-06T04:30:09;5.70;99.90
39347;DHT22;26262;49.836;6.632;2024-01-06T04:32:34;5.80;99.90
39347;DHT22;26262;49.836;6.632;2024-01-06T04:35:00;6.00;99.90
39347;DHT22;26262;49.836;6.632;2024-01-06T04:37:25;6.10;99.90
39347;DHT22;26262;49.836;6.632;2024-01-06T04:39:50;5.80;99.90
39347;DHT22;26262;49.836;6.632;2024-01-06T04:42:16;5.90;99.90
39347;DHT22;26262;49.836;6.632;2024-01-06T04:44:41;6.00;99.90
39347;DHT22;26262;49.836;6.632;2024-01-06T04:47:07;6.00;99.90
39347;DHT22;26262;49.836;6.632;2024-01-06T04:49:32;6.10;99.90
39347;DHT22;26262;49.836;6.632;2024-01-06T04:51:57;6.10;99.90
39347;DHT22;26262;49.836;6.632;2024-01-06T04:54:23;6.20;99.90
39347;DHT22;26262;49.836;6.632;2024-01-06T04:56:48;6.20;99.90
39347;DHT22;26262;49.836;6.632;2024-01-06T04:59:14;6.20;99.90
39347;DHT22;26262;49.836;6.632;2024-01-06T05:01:39;6.20;99.90
39347;DHT22;26262;49.836;6.632;2024-01-06T05:04:05;6.30;99.90
39347;DHT22;26262;49.836;6.632;2024-01-06T05:06:32;6.30;99.90
39347;DHT22;26262;49.836;6.632;2024-01-06T05:08:57;6.40;99.90
39347;DHT22;26262;49.836;6.632;2024-01-06T05:11:23;6.30;99.90
39347;DHT22;26262;49.836;6.632;2024-01-06T05:13:48;6.40;99.90
39347;DHT22;26262;49.836;6.632;2024-01-06T05:16:14;6.40;99.90
39347;DHT22;26262;49.836;6.632;2024-01-06T05:18:39;6.40;99.90
39347;DHT22;26262;49.836;6.632;2024-01-06T05:21:05;6.40;99.90
39347;DHT22;26262;49.836;6.632;2024-01-06T05:23:30;6.40;99.90
39347;DHT22;26262;49.836;6.632;2024-01-06T05:25:56;6.40;99.90
39347;DHT22;26262;49.836;6.632;2024-01-06T05:28:21;6.30;99.90
39347;DHT22;26262;49.836;6.632;2024-01-06T05:30:46;6.30;99.90
39347;DHT22;26262;49.836;6.632;2024-01-06T05:33:12;6.20;99.90
39347;DHT22;26262;49.836;6.632;2024-01-06T05:35:38;6.30;99.90
39347;DHT22;26262;49.836;6.632;2024-01-06T05:38:04;6.30;99.90
39347;DHT22;26262;49.836;6.632;2024-01-06T05:40:29;6.40;99.90
39347;DHT22;26262;49.836;6.632;2024-01-06T05:42:55;6.20;99.90
39347;DHT22;26262;49.836;6.632;2024-01-06T05:45:22;6.30;99.90
39347;DHT22;26262;49.836;6.632;2024-01-06T05:47:48;6.40;99.90
39347;DHT22;26262;49.836;6.632;2024-01-06T05:50:15;6.40;99.90
39347;DHT22;26262;49.836;6.632;2024-01-06T05:52:40;6.50;99.90
39347;DHT22;26262;49.836;6.632;2024-01-06T05:55:06;6.50;99.90
39347;DHT22;26262;49.836;6.632;2024-01-06T05:57:31;6.50;99.90
39347;DHT22;26262;49.836;6.632;2024-01-06T05:59:57;6.30;99.90
39347;DHT22;26262;49.836;6.632;2024-01-06T06:02:22;6.30;99.90
39347;DHT22;26262;49.836;6.632;2024-01-06T06:04:48;6.30;99.90
39347;DHT22;26262;49.836;6.632;2024-01-06T06:07:13;6.40;99.90
39347;DHT22;26262;49.836;6.632;2024-01-06T06:09:39;6.40;99.90
39347;DHT22;26262;49.836;6.632;2024-01-06T06:12:05;6.40;99.90
39347;DHT22;26262;49.836;6.632;2024-01-06T06:14:31;6.40;99.90
39347;DHT22;26262;49.836;6.632;2024-01-06T06:16:56;6.40;99.90
39347;DHT22;26262;49.836;6.632;2024-01-06T06:19:22;6.50;99.90
39347;DHT22;26262;49.836;6.632;2024-01-06T06:21:47;6.50;99.90
39347;DHT22;26262;49.836;6.632;2024-01-06T06:24:13;6.50;99.90
39347;DHT22;26262;49.836;6.632;2024-01-06T06:26:38;6.50;99.90
39347;DHT22;26262;49.836;6.632;2024-01-06T06:29:04;6.60;99.90
39347;DHT22;26262;49.836;6.632;2024-01-06T06:31:29;6.60;99.90
39347;DHT22;26262;49.836;6.632;2024-01-06T06:33:55;6.60;99.90
39347;DHT22;26262;49.836;6.632;2024-01-06T06:36:20;6.60;99.90
39347;DHT22;26262;49.836;6.632;2024-01-06T06:38:46;6.50;99.90
39347;DHT22;26262;49.836;6.632;2024-01-06T06:41:11;6.50;99.90
39347;DHT22;26262;49.836;6.632;2024-01-06T06:43:37;6.30;99.90
39347;DHT22;26262;49.836;6.632;2024-01-06T06:46:02;6.30;99.90
39347;DHT22;26262;49.836;6.632;2024-01-06T06:48:28;6.30;99.90
39347;DHT22;26262;49.836;6.632;2024-01-06T06:50:53;6.40;99.90
39347;DHT22;26262;49.836;6.632;2024-01-06T06:53:18;6.50;99.90
39347;DHT22;26262;49.836;6.632;2024-01-06T06:55:44;6.40;99.90
39347;DHT22;26262;49.836;6.632;2024-01-06T06:58:09;6.50;99.90
39347;DHT22;26262;49.836;6.632;2024-01-06T07:00:35;6.50;99.90
39347;DHT22;26262;49.836;6.632;2024-01-06T07:03:00;6.50;99.90
39347;DHT22;26262;49.836;6.632;2024-01-06T07:05:26;6.50;99.90
39347;DHT22;26262;49.836;6.632;2024-01-06T07:07:51;6.60;99.90
39347;DHT22;26262;49.836;6.632;2024-01-06T07:10:17;6.60;99.90
39347;DHT22;26262;49.836;6.632;2024-01-06T07:12:42;6.60;99.90
39347;DHT22;26262;49.836;6.632;2024-01-06T07:15:08;6.60;99.90
39347;DHT22;26262;49.836;6.632;2024-01-06T07:17:35;6.60;99.90
39347;DHT22;26262;49.836;6.632;2024-01-06T07:20:01;6.50;99.90
39347;DHT22;26262;49.836;6.632;2024-01-06T07:22:26;6.50;99.90
39347;DHT22;26262;49.836;6.632;2024-01-06T07:24:52;6.40;99.90
39347;DHT22;26262;49.836;6.632;2024-01-06T07:27:17;6.40;99.90
39347;DHT22;26262;49.836;6.632;2024-01-06T07:29:43;6.50;99.90
39347;DHT22;26262;49.836;6.632;2024-01-06T07:32:08;6.50;99.90
39347;DHT22;26262;49.836;6.632;2024-01-06T07:34:34;6.60;99.90
39347;DHT22;26262;49.836;6.632;2024-01-06T07:36:59;6.60;99.90
39347;DHT22;26262;49.836;6.632;2024-01-06T07:39:25;6.60;99.90
39347;DHT22;26262;49.836;6.632;2024-01-06T07:41:50;6.60;99.90
39347;DHT22;26262;49.836;6.632;2024-01-06T07:44:16;6.60;99.90
39347;DHT22;26262;49.836;6.632;2024-01-06T07:46:47;6.70;99.90
39347;DHT22;26262;49.836;6.632;2024-01-06T07:49:13;6.60;99.90
39347;DHT22;26262;49.836;6.632;2024-01-06T07:51:39;6.60;99.90
39347;DHT22;26262;49.836;6.632;2024-01-06T07:54:04;6.70;99.90
39347;DHT22;26262;49.836;6.632;2024-01-06T07:56:31;6.30;99.90
39347;DHT22;26262;49.836;6.632;2024-01-06T07:58:57;6.40;99.90
39347;DHT22;26262;49.836;6.632;2024-01-06T08:01:22;6.40;99.90
39347;DHT22;26262;49.836;6.632;2024-01-06T08:03:48;6.50;99.90
39347;DHT22;26262;49.836;6.632;2024-01-06T08:06:13;6.30;99.90
39347;DHT22;26262;49.836;6.632;2024-01-06T08:08:38;6.40;99.90
39347;DHT22;26262;49.836;6.632;2024-01-06T08:11:04;6.50;99.90
39347;DHT22;26262;49.836;6.632;2024-01-06T08:13:29;6.60;99.90
39347;DHT22;26262;49.836;6.632;2024-01-06T08:15:55;6.60;99.90
39347;DHT22;26262;49.836;6.632;2024-01-06T08:18:20;6.70;99.90
39347;DHT22;26262;49.836;6.632;2024-01-06T08:20:47;6.50;99.90
39347;DHT22;26262;49.836;6.632;2024-01-06T08:23:12;6.60;99.90
39347;DHT22;26262;49.836;6.632;2024-01-06T08:25:38;6.60;99.90
39347;DHT22;26262;49.836;6.632;2024-01-06T08:28:03;6.60;99.90
39347;DHT22;26262;49.836;6.632;2024-01-06T08:30:29;6.60;99.90
39347;DHT22;26262;49.836;6.632;2024-01-06T08:32:54;6.60;99.90
39347;DHT22;26262;49.836;6.632;2024-01-06T08:35:20;6.40;99.90
39347;DHT22;26262;49.836;6.632;2024-01-06T08:37:45;6.40;99.90
39347;DHT22;26262;49.836;6.632;2024-01-06T08:40:11;6.60;99.90
39347;DHT22;26262;49.836;6.632;2024-01-06T08:42:36;6.60;99.90
39347;DHT22;26262;49.836;6.632;2024-01-06T08:45:02;6.40;99.90
39347;DHT22;26262;49.836;6.632;2024-01-06T08:47:27;6.30;99.90
39347;DHT22;26262;49.836;6.632;2024-01-06T08:49:53;6.20;99.90
39347;DHT22;26262;49.836;6.632;2024-01-06T08:52:18;6.10;99.90
39347;DHT22;26262;49.836;6.632;2024-01-06T08:54:44;6.20;99.90
39347;DHT22;26262;49.836;6.632;2024-01-06T08:57:09;6.20;99.90
39347;DHT22;26262;49.836;6.632;2024-01-06T08:59:35;6.30;99.90
39347;DHT22;26262;49.836;6.632;2024-01-06T09:02:00;6.30;99.90
39347;DHT22;26262;49.836;6.632;2024-01-06T09:04:26;6.30;99.90
39347;DHT22;26262;49.836;6.632;2024-01-06T09:06:51;6.50;99.90
39347;DHT22;26262;49.836;6.632;2024-01-06T09:09:17;6.60;99.90
39347;DHT22;26262;49.836;6.632;2024-01-06T09:11:42;6.60;99.90
39347;DHT22;26262;49.836;6.632;2024-01-06T09:14:09;6.50;99.90
39347;DHT22;26262;49.836;6.632;2024-01-06T09:16:36;6.70;99.90
39347;DHT22;26262;49.836;6.632;2024-01-06T09:19:02;6.70;99.90
39347;DHT22;26262;49.836;6.632;2024-01-06T09:21:27;6.70;99.90
39347;DHT22;26262;49.836;6.632;2024-01-06T09:23:53;6.70;99.90
39347;DHT22;26262;49.836;6.632;2024-01-06T09:26:18;6.70;99.90
39347;DHT22;26262;49.836;6.632;2024-01-06T09:28:44;6.70;99.90
39347;DHT22;26262;49.836;6.632;2024-01-06T09:31:09;6.70;99.90
39347;DHT22;26262;49.836;6.632;2024-01-06T09:33:34;6.70;99.90
39347;DHT22;26262;49.836;6.632;2024-01-06T09:36:00;6.70;99.90
39347;DHT22;26262;49.836;6.632;2024-01-06T09:38:26;6.70;99.90
39347;DHT22;26262;49.836;6.632;2024-01-06T09:40:51;6.90;99.90
39347;DHT22;26262;49.836;6.632;2024-01-06T09:43:18;6.90;99.90
39347;DHT22;26262;49.836;6.632;2024-01-06T09:45:43;6.80;99.90
39347;DHT22;26262;49.836;6.632;2024-01-06T09:48:10;6.90;99.90
39347;DHT22;26262;49.836;6.632;2024-01-06T09:50:37;6.90;99.90
39347;DHT22;26262;49.836;6.632;2024-01-06T09:53:04;6.90;99.90
39347;DHT22;26262;49.836;6.632;2024-01-06T09:55:32;7.00;99.90
39347;DHT22;26262;49.836;6.632;2024-01-06T09:57:57;7.10;99.90
39347;DHT22;26262;49.836;6.632;2024-01-06T10:00:22;7.10;99.90
39347;DHT22;26262;49.836;6.632;2024-01-06T10:02:48;6.90;99.90
39347;DHT22;26262;49.836;6.632;2024-01-06T10:05:17;7.00;99.90
39347;DHT22;26262;49.836;6.632;2024-01-06T10:07:43;7.00;99.90
39347;DHT22;26262;49.836;6.632;2024-01-06T10:10:11;7.00;99.90
39347;DHT22;26262;49.836;6.632;2024-01-06T10:12:37;7.00;99.90
39347;DHT22;26262;49.836;6.632;2024-01-06T10:15:03;7.10;99.90
39347;DHT22;26262;49.836;6.632;2024-01-06T10:17:29;7.10;99.90
39347;DHT22;26262;49.836;6.632;2024-01-06T10:19:54;7.30;99.90
39347;DHT22;26262;49.836;6.632;2024-01-06T10:22:19;7.20;99.90
39347;DHT22;26262;49.836;6.632;2024-01-06T10:24:45;7.00;99.90
39347;DHT22;26262;49.836;6.632;2024-01-06T10:27:11;7.00;99.90
39347;DHT22;26262;49.836;6.632;2024-01-06T10:29:37;7.20;99.90
39347;DHT22;26262;49.836;6.632;2024-01-06T10:32:02;7.20;99.90
39347;DHT22;26262;49.836;6.632;2024-01-06T10:34:28;7.20;99.90
39347;DHT22;26262;49.836;6.632;2024-01-06T10:36:54;7.10;99.90
39347;DHT22;26262;49.836;6.632;2024-01-06T10:39:20;7.00;99.90
39347;DHT22;26262;49.836;6.632;2024-01-06T10:41:46;6.90;99.90
39347;DHT22;26262;49.836;6.632;2024-01-06T10:44:14;6.90;99.90
39347;DHT22;26262;49.836;6.632;2024-01-06T10:46:39;7.00;99.90
39347;DHT22;26262;49.836;6.632;2024-01-06T10:49:06;7.00;99.90
39347;DHT22;26262;49.836;6.632;2024-01-06T10:51:36;7.10;99.90
39347;DHT22;26262;49.836;6.632;2024-01-06T10:54:02;7.20;99.90
39347;DHT22;26262;49.836;6.632;2024-01-06T10:56:28;7.30;99.90
39347;DHT22;26262;49.836;6.632;2024-01-06T10:58:54;7.30;99.90
39347;DHT22;26262;49.836;6.632;2024-01-06T11:01:23;7.30;99.90
39347;DHT22;26262;49.836;6.632;2024-01-06T11:03:50;7.30;99.90
39347;DHT22;26262;49.836;6.632;2024-01-06T11:06:15;7.20;99.90
39347;DHT22;26262;49.836;6.632;2024-01-06T11:11:23;7.30;99.90
39347;DHT22;26262;49.836;6.632;2024-01-06T11:13:49;7.30;99.90
39347;DHT22;26262;49.836;6.632;2024-01-06T11:16:36;7.10;99.90
39347;DHT22;26262;49.836;6.632;2024-01-06T11:19:02;7.30;99.90
39347;DHT22;26262;49.836;6.632;2024-01-06T11:21:31;7.30;99.90
39347;DHT22;26262;49.836;6.632;2024-01-06T11:24:11;7.40;99.90
39347;DHT22;26262;49.836;6.632;2024-01-06T11:26:39;7.40;99.90
39347;DHT22;26262;49.836;6.632;2024-01-06T11:29:05;7.40;99.90
39347;DHT22;26262;49.836;6.632;2024-01-06T11:31:31;7.50;99.90
39347;DHT22;26262;49.836;6.632;2024-01-06T11:33:57;7.40;99.90
39347;DHT22;26262;49.836;6.632;2024-01-06T11:36:36;7.20;99.90
39347;DHT22;26262;49.836;6.632;2024-01-06T11:39:02;7.10;99.90
39347;DHT22;26262;49.836;6.632;2024-01-06T11:44:12;7.20;99.90
39347;DHT22;26262;49.836;6.632;2024-01-06T11:46:38;7.20;99.90
39347;DHT22;26262;49.836;6.632;2024-01-06T11:49:04;7.20;99.90
39347;DHT22;26262;49.836;6.632;2024-01-06T11:51:29;7.30;99.90
39347;DHT22;26262;49.836;6.632;2024-01-06T11:53:55;7.20;99.90
39347;DHT22;26262;49.836;6.632;2024-01-06T11:56:20;7.20;99.90
39347;DHT22;26262;49.836;6.632;2024-01-06T11:58:48;6.90;99.90
39347;DHT22;26262;49.836;6.632;2024-01-06T12:01:13;6.70;99.90
39347;DHT22;26262;49.836;6.632;2024-01-06T12:03:38;6.70;99.90
39347;DHT22;26262;49.836;6.632;2024-01-06T12:06:04;6.70;99.90
39347;DHT22;26262;49.836;6.632;2024-01-06T12:08:31;6.90;99.90
39347;DHT22;26262;49.836;6.632;2024-01-06T12:11:03;7.00;99.90
39347;DHT22;26262;49.836;6.632;2024-01-06T12:13:28;6.90;99.90
39347;DHT22;26262;49.836;6.632;2024-01-06T12:15:54;7.10;99.90
39347;DHT22;26262;49.836;6.632;2024-01-06T12:18:20;7.30;99.90
39347;DHT22;26262;49.836;6.632;2024-01-06T12:20:45;7.10;99.90
39347;DHT22;26262;49.836;6.632;2024-01-06T12:23:10;6.80;99.90
39347;DHT22;26262;49.836;6.632;2024-01-06T12:25:36;6.60;99.90
39347;DHT22;26262;49.836;6.632;2024-01-06T12:28:01;6.60;99.90
39347;DHT22;26262;49.836;6.632;2024-01-06T12:30:27;6.70;99.90
39347;DHT22;26262;49.836;6.632;2024-01-06T12:32:53;6.80;99.90
39347;DHT22;26262;49.836;6.632;2024-01-06T12:35:19;6.90;99.90
39347;DHT22;26262;49.836;6.632;2024-01-06T12:37:45;6.90;99.90
39347;DHT22;26262;49.836;6.632;2024-01-06T12:40:11;7.00;99.90
39347;DHT22;26262;49.836;6.632;2024-01-06T12:42:38;7.00;99.90
39347;DHT22;26262;49.836;6.632;2024-01-06T12:45:04;6.90;99.90
39347;DHT22;26262;49.836;6.632;2024-01-06T12:47:29;6.80;99.90
39347;DHT22;26262;49.836;6.632;2024-01-06T12:49:55;6.70;99.90
39347;DHT22;26262;49.836;6.632;2024-01-06T12:52:20;6.70;99.90
39347;DHT22;26262;49.836;6.632;2024-01-06T12:54:46;6.70;99.90
39347;DHT22;26262;49.836;6.632;2024-01-06T12:57:11;6.60;99.90
39347;DHT22;26262;49.836;6.632;2024-01-06T12:59:40;6.70;99.90
39347;DHT22;26262;49.836;6.632;2024-01-06T13:02:05;6.70;99.90
39347;DHT22;26262;49.836;6.632;2024-01-06T13:04:31;6.90;99.90
39347;DHT22;26262;49.836;6.632;2024-01-06T13:06:56;6.90;99.90
39347;DHT22;26262;49.836;6.632;2024-01-06T13:09:21;6.80;99.90
39347;DHT22;26262;49.836;6.632;2024-01-06T13:11:49;6.70;99.90
39347;DHT22;26262;49.836;6.632;2024-01-06T13:14:16;6.90;99.90
39347;DHT22;26262;49.836;6.632;2024-01-06T13:16:41;6.80;99.90
39347;DHT22;26262;49.836;6.632;2024-01-06T13:19:07;6.60;99.90
39347;DHT22;26262;49.836;6.632;2024-01-06T13:21:32;6.60;99.90
39347;DHT22;26262;49.836;6.632;2024-01-06T13:23:58;6.50;99.90
39347;DHT22;26262;49.836;6.632;2024-01-06T13:26:26;6.60;99.90
39347;DHT22;26262;49.836;6.632;2024-01-06T13:28:53;6.60;99.90
39347;DHT22;26262;49.836;6.632;2024-01-06T13:31:18;6.60;99.90
39347;DHT22;26262;49.836;6.632;2024-01-06T13:33:44;6.30;99.90
39347;DHT22;26262;49.836;6.632;2024-01-06T13:36:09;6.60;99.90
39347;DHT22;26262;49.836;6.632;2024-01-06T13:38:35;6.70;99.90
39347;DHT22;26262;49.836;6.632;2024-01-06T13:41:00;6.80;99.90
39347;DHT22;26262;49.836;6.632;2024-01-06T13:43:26;6.50;99.90
39347;DHT22;26262;49.836;6.632;2024-01-06T13:45:51;6.50;99.90
39347;DHT22;26262;49.836;6.632;2024-01-06T13:48:17;6.60;99.90
39347;DHT22;26262;49.836;6.632;2024-01-06T13:50:44;6.40;99.90
39347;DHT22;26262;49.836;6.632;2024-01-06T13:53:10;6.40;99.90
39347;DHT22;26262;49.836;6.632;2024-01-06T13:55:35;6.30;99.90
39347;DHT22;26262;49.836;6.632;2024-01-06T13:58:01;6.30;99.90
39347;DHT22;26262;49.836;6.632;2024-01-06T14:00:26;6.40;99.90
39347;DHT22;26262;49.836;6.632;2024-01-06T14:02:52;6.40;99.90
39347;DHT22;26262;49.836;6.632;2024-01-06T14:05:19;6.30;99.90
39347;DHT22;26262;49.836;6.632;2024-01-06T14:07:45;6.40;99.90
39347;DHT22;26262;49.836;6.632;2024-01-06T14:10:13;6.10;99.90
39347;DHT22;26262;49.836;6.632;2024-01-06T14:12:40;6.20;99.90
39347;DHT22;26262;49.836;6.632;2024-01-06T14:15:06;6.30;99.90
39347;DHT22;26262;49.836;6.632;2024-01-06T14:17:32;6.30;99.90
39347;DHT22;26262;49.836;6.632;2024-01-06T14:19:57;6.30;99.90
39347;DHT22;26262;49.836;6.632;2024-01-06T14:22:23;6.40;99.90
39347;DHT22;26262;49.836;6.632;2024-01-06T14:24:48;6.50;99.90
39347;DHT22;26262;49.836;6.632;2024-01-06T14:27:15;6.40;99.90
39347;DHT22;26262;49.836;6.632;2024-01-06T14:29:41;6.50;99.90
39347;DHT22;26262;49.836;6.632;2024-01-06T14:32:06;6.20;99.90
39347;DHT22;26262;49.836;6.632;2024-01-06T14:34:32;6.30;99.90
39347;DHT22;26262;49.836;6.632;2024-01-06T14:37:00;6.50;99.90
39347;DHT22;26262;49.836;6.632;2024-01-06T14:39:28;6.60;99.90
39347;DHT22;26262;49.836;6.632;2024-01-06T14:41:54;6.30;99.90
39347;DHT22;26262;49.836;6.632;2024-01-06T14:44:19;6.10;99.90
39347;DHT22;26262;49.836;6.632;2024-01-06T14:46:49;6.00;99.90
39347;DHT22;26262;49.836;6.632;2024-01-06T14:49:16;6.20;99.90
39347;DHT22;26262;49.836;6.632;2024-01-06T14:51:41;6.30;99.90
39347;DHT22;26262;49.836;6.632;2024-01-06T14:54:07;6.30;99.90
39347;DHT22;26262;49.836;6.632;2024-01-06T14:56:33;6.30;99.90
39347;DHT22;26262;49.836;6.632;2024-01-06T14:59:02;6.00;99.90
39347;DHT22;26262;49.836;6.632;2024-01-06T15:01:28;6.00;99.90
39347;DHT22;26262;49.836;6.632;2024-01-06T15:03:53;5.90;99.90
39347;DHT22;26262;49.836;6.632;2024-01-06T15:06:18;5.80;99.90
39347;DHT22;26262;49.836;6.632;2024-01-06T15:08:44;5.70;99.90
39347;DHT22;26262;49.836;6.632;2024-01-06T15:11:09;5.80;99.90
39347;DHT22;26262;49.836;6.632;2024-01-06T15:13:35;5.90;99.90
39347;DHT22;26262;49.836;6.632;2024-01-06T15:16:01;5.90;99.90
39347;DHT22;26262;49.836;6.632;2024-01-06T15:18:27;5.80;99.90
39347;DHT22;26262;49.836;6.632;2024-01-06T15:20:53;5.80;99.90
39347;DHT22;26262;49.836;6.632;2024-01-06T15:23:18;5.80;99.90
39347;DHT22;26262;49.836;6.632;2024-01-06T15:25:45;5.80;99.90
39347;DHT22;26262;49.836;6.632;2024-01-06T15:28:10;5.70;99.90
39347;DHT22;26262;49.836;6.632;2024-01-06T15:30:35;5.60;99.90
39347;DHT22;26262;49.836;6.632;2024-01-06T15:33:01;5.80;99.90
39347;DHT22;26262;49.836;6.632;2024-01-06T15:35:26;5.80;99.90
39347;DHT22;26262;49.836;6.632;2024-01-06T15:37:52;5.80;99.90
39347;DHT22;26262;49.836;6.632;2024-01-06T15:40:17;5.70;99.90